sensor_id;sensor_type;location;lat;lon;timestamp;P1;durP1;ratioP1;P2;durP2;ratioP2
27740;SDS011;15134;48.768;9.184;2023-02-15T00:02:21;813.20;;;617.57;;
27740;SDS011;15134;48.768;9.184;2023-02-15T00:04:49;812.00;;;618.67;;
27740;SDS011;15134;48.768;9.184;2023-02-15T00:07:15;812.75;;;618.22;;
27740;SDS011;15134;48.768;9.184;2023-02-15T00:09:46;812.88;;;614.75;;
27740;SDS011;15134;48.768;9.184;2023-02-15T00:12:12;812.27;;;616.60;;
27740;SDS011;15134;48.768;9.184;2023-02-15T00:14:38;807.80;;;612.70;;
27740;SDS011;15134;48.768;9.184;2023-02-15T00:17:04;812.80;;;619.35;;
27740;SDS011;15134;48.768;9.184;2023-02-15T00:19:30;811.33;;;613.63;;
27740;SDS011;15134;48.768;9.184;2023-02-15T00:21:55;813.85;;;615.80;;
27740;SDS011;15134;48.768;9.184;2023-02-15T00:24:21;808.10;;;607.90;;
27740;SDS011;15134;48.768;9.184;2023-02-15T00:26:48;807.90;;;606.35;;
27740;SDS011;15134;48.768;9.184;2023-02-15T00:29:15;808.67;;;604.13;;
27740;SDS011;15134;48.768;9.184;2023-02-15T00:31:42;808.78;;;610.13;;
27740;SDS011;15134;48.768;9.184;2023-02-15T00:36:40;808.15;;;607.80;;
27740;SDS011;15134;48.768;9.184;2023-02-15T00:39:10;810.67;;;615.75;;
27740;SDS011;15134;48.768;9.184;2023-02-15T00:41:37;809.28;;;612.45;;
27740;SDS011;15134;48.768;9.184;2023-02-15T00:44:03;807.83;;;611.20;;
27740;SDS011;15134;48.768;9.184;2023-02-15T00:46:29;807.88;;;610.35;;
27740;SDS011;15134;48.768;9.184;2023-02-15T00:49:01;808.78;;;611.63;;
27740;SDS011;15134;48.768;9.184;2023-02-15T00:51:27;806.47;;;605.85;;
27740;SDS011;15134;48.768;9.184;2023-02-15T00:53:53;806.25;;;607.53;;
27740;SDS011;15134;48.768;9.184;2023-02-15T00:56:22;811.28;;;615.05;;
27740;SDS011;15134;48.768;9.184;2023-02-15T00:58:48;808.20;;;611.20;;
27740;SDS011;15134;48.768;9.184;2023-02-15T01:01:15;805.63;;;604.83;;
27740;SDS011;15134;48.768;9.184;2023-02-15T01:03:43;804.70;;;601.30;;
27740;SDS011;15134;48.768;9.184;2023-02-15T01:06:14;808.17;;;607.67;;
27740;SDS011;15134;48.768;9.184;2023-02-15T01:08:42;811.67;;;612.58;;
27740;SDS011;15134;48.768;9.184;2023-02-15T01:11:11;807.33;;;609.15;;
27740;SDS011;15134;48.768;9.184;2023-02-15T01:13:47;812.42;;;612.15;;
27740;SDS011;15134;48.768;9.184;2023-02-15T01:16:14;807.80;;;607.60;;
27740;SDS011;15134;48.768;9.184;2023-02-15T01:18:41;808.97;;;607.03;;
27740;SDS011;15134;48.768;9.184;2023-02-15T01:21:15;809.33;;;609.60;;
27740;SDS011;15134;48.768;9.184;2023-02-15T01:23:42;810.38;;;610.53;;
27740;SDS011;15134;48.768;9.184;2023-02-15T01:26:09;808.67;;;606.55;;
27740;SDS011;15134;48.768;9.184;2023-02-15T01:28:37;807.83;;;604.78;;
27740;SDS011;15134;48.768;9.184;2023-02-15T01:31:14;802.05;;;595.28;;
27740;SDS011;15134;48.768;9.184;2023-02-15T01:33:43;804.55;;;597.28;;
27740;SDS011;15134;48.768;9.184;2023-02-15T01:36:10;807.42;;;600.97;;
27740;SDS011;15134;48.768;9.184;2023-02-15T01:38:37;806.15;;;602.28;;
27740;SDS011;15134;48.768;9.184;2023-02-15T01:41:04;807.17;;;605.67;;
27740;SDS011;15134;48.768;9.184;2023-02-15T01:43:58;810.67;;;610.53;;
27740;SDS011;15134;48.768;9.184;2023-02-15T01:46:41;804.38;;;603.38;;
27740;SDS011;15134;48.768;9.184;2023-02-15T01:49:17;809.80;;;612.33;;
27740;SDS011;15134;48.768;9.184;2023-02-15T01:51:50;806.85;;;605.95;;
27740;SDS011;15134;48.768;9.184;2023-02-15T01:56:54;801.17;;;598.58;;
27740;SDS011;15134;48.768;9.184;2023-02-15T01:59:24;801.75;;;597.78;;
27740;SDS011;15134;48.768;9.184;2023-02-15T02:01:51;803.92;;;601.45;;
27740;SDS011;15134;48.768;9.184;2023-02-15T02:07:06;803.33;;;604.93;;
27740;SDS011;15134;48.768;9.184;2023-02-15T02:09:33;806.05;;;603.05;;
27740;SDS011;15134;48.768;9.184;2023-02-15T02:12:00;803.97;;;602.28;;
27740;SDS011;15134;48.768;9.184;2023-02-15T02:14:26;807.03;;;602.10;;
27740;SDS011;15134;48.768;9.184;2023-02-15T02:23:23;806.70;;;604.33;;
27740;SDS011;15134;48.768;9.184;2023-02-15T02:40:12;805.33;;;600.90;;
27740;SDS011;15134;48.768;9.184;2023-02-15T02:42:56;800.03;;;591.58;;
27740;SDS011;15134;48.768;9.184;2023-02-15T02:48:17;803.30;;;598.20;;
27740;SDS011;15134;48.768;9.184;2023-02-15T02:50:48;800.40;;;595.65;;
27740;SDS011;15134;48.768;9.184;2023-02-15T02:53:15;803.42;;;593.55;;
27740;SDS011;15134;48.768;9.184;2023-02-15T02:55:46;805.08;;;594.65;;
27740;SDS011;15134;48.768;9.184;2023-02-15T03:00:54;803.42;;;599.60;;
27740;SDS011;15134;48.768;9.184;2023-02-15T03:03:52;803.70;;;597.75;;
27740;SDS011;15134;48.768;9.184;2023-02-15T03:06:42;803.67;;;601.78;;
27740;SDS011;15134;48.768;9.184;2023-02-15T03:09:37;803.10;;;599.17;;
27740;SDS011;15134;48.768;9.184;2023-02-15T03:12:19;801.60;;;597.88;;
27740;SDS011;15134;48.768;9.184;2023-02-15T03:14:50;803.22;;;597.63;;
27740;SDS011;15134;48.768;9.184;2023-02-15T03:17:22;805.70;;;603.83;;
27740;SDS011;15134;48.768;9.184;2023-02-15T03:19:51;801.95;;;599.28;;
27740;SDS011;15134;48.768;9.184;2023-02-15T03:22:26;800.05;;;589.95;;
27740;SDS011;15134;48.768;9.184;2023-02-15T03:25:15;805.20;;;603.63;;
27740;SDS011;15134;48.768;9.184;2023-02-15T03:27:49;800.47;;;592.75;;
27740;SDS011;15134;48.768;9.184;2023-02-15T03:30:30;805.38;;;601.85;;
27740;SDS011;15134;48.768;9.184;2023-02-15T03:32:58;804.95;;;599.03;;
27740;SDS011;15134;48.768;9.184;2023-02-15T03:35:25;802.67;;;595.22;;
27740;SDS011;15134;48.768;9.184;2023-02-15T03:38:02;802.55;;;593.33;;
27740;SDS011;15134;48.768;9.184;2023-02-15T03:40:37;804.60;;;593.47;;
27740;SDS011;15134;48.768;9.184;2023-02-15T03:49:12;803.60;;;594.15;;
27740;SDS011;15134;48.768;9.184;2023-02-15T03:51:52;803.72;;;602.50;;
27740;SDS011;15134;48.768;9.184;2023-02-15T03:54:33;804.33;;;598.20;;
27740;SDS011;15134;48.768;9.184;2023-02-15T03:57:14;802.20;;;597.75;;
27740;SDS011;15134;48.768;9.184;2023-02-15T04:00:04;800.53;;;598.67;;
27740;SDS011;15134;48.768;9.184;2023-02-15T04:05:48;801.17;;;595.25;;
27740;SDS011;15134;48.768;9.184;2023-02-15T04:08:17;799.17;;;592.77;;
27740;SDS011;15134;48.768;9.184;2023-02-15T04:10:45;801.78;;;601.08;;
27740;SDS011;15134;48.768;9.184;2023-02-15T04:13:24;798.90;;;596.35;;
27740;SDS011;15134;48.768;9.184;2023-02-15T04:16:01;799.90;;;598.17;;
27740;SDS011;15134;48.768;9.184;2023-02-15T04:18:30;799.25;;;594.20;;
27740;SDS011;15134;48.768;9.184;2023-02-15T04:21:19;803.97;;;601.33;;
27740;SDS011;15134;48.768;9.184;2023-02-15T04:24:05;801.30;;;596.15;;
27740;SDS011;15134;48.768;9.184;2023-02-15T04:26:50;799.08;;;591.55;;
27740;SDS011;15134;48.768;9.184;2023-02-15T04:29:18;798.75;;;595.50;;
27740;SDS011;15134;48.768;9.184;2023-02-15T04:31:45;800.63;;;596.67;;
27740;SDS011;15134;48.768;9.184;2023-02-15T04:34:11;800.70;;;597.78;;
27740;SDS011;15134;48.768;9.184;2023-02-15T04:36:37;800.95;;;597.15;;
27740;SDS011;15134;48.768;9.184;2023-02-15T04:39:04;798.85;;;595.10;;
27740;SDS011;15134;48.768;9.184;2023-02-15T04:41:30;799.55;;;593.45;;
27740;SDS011;15134;48.768;9.184;2023-02-15T04:43:56;799.00;;;592.93;;
27740;SDS011;15134;48.768;9.184;2023-02-15T04:46:22;797.97;;;594.00;;
27740;SDS011;15134;48.768;9.184;2023-02-15T04:48:48;802.42;;;600.60;;
27740;SDS011;15134;48.768;9.184;2023-02-15T04:51:13;804.43;;;602.60;;
27740;SDS011;15134;48.768;9.184;2023-02-15T04:53:39;798.17;;;589.63;;
27740;SDS011;15134;48.768;9.184;2023-02-15T04:56:05;800.83;;;593.80;;
27740;SDS011;15134;48.768;9.184;2023-02-15T04:58:31;799.40;;;595.80;;
27740;SDS011;15134;48.768;9.184;2023-02-15T05:00:57;797.23;;;589.97;;
27740;SDS011;15134;48.768;9.184;2023-02-15T05:03:23;797.97;;;593.40;;
27740;SDS011;15134;48.768;9.184;2023-02-15T05:05:50;797.63;;;591.70;;
27740;SDS011;15134;48.768;9.184;2023-02-15T05:08:17;798.73;;;594.80;;
27740;SDS011;15134;48.768;9.184;2023-02-15T05:10:47;800.20;;;600.03;;
27740;SDS011;15134;48.768;9.184;2023-02-15T05:13:19;799.92;;;595.40;;
27740;SDS011;15134;48.768;9.184;2023-02-15T05:15:48;799.53;;;597.35;;
27740;SDS011;15134;48.768;9.184;2023-02-15T05:18:16;800.10;;;596.47;;
27740;SDS011;15134;48.768;9.184;2023-02-15T05:20:42;801.63;;;595.55;;
27740;SDS011;15134;48.768;9.184;2023-02-15T05:23:08;800.23;;;597.53;;
27740;SDS011;15134;48.768;9.184;2023-02-15T05:25:34;800.95;;;597.58;;
27740;SDS011;15134;48.768;9.184;2023-02-15T05:28:22;799.95;;;595.72;;
27740;SDS011;15134;48.768;9.184;2023-02-15T05:30:50;797.22;;;587.97;;
27740;SDS011;15134;48.768;9.184;2023-02-15T05:33:35;799.33;;;595.65;;
27740;SDS011;15134;48.768;9.184;2023-02-15T05:36:01;803.47;;;594.17;;
27740;SDS011;15134;48.768;9.184;2023-02-15T05:38:30;793.83;;;587.80;;
27740;SDS011;15134;48.768;9.184;2023-02-15T05:40:56;802.13;;;599.83;;
27740;SDS011;15134;48.768;9.184;2023-02-15T05:43:31;798.30;;;594.33;;
27740;SDS011;15134;48.768;9.184;2023-02-15T05:45:58;796.63;;;587.17;;
27740;SDS011;15134;48.768;9.184;2023-02-15T05:48:24;796.20;;;586.40;;
27740;SDS011;15134;48.768;9.184;2023-02-15T05:51:07;796.88;;;585.83;;
27740;SDS011;15134;48.768;9.184;2023-02-15T05:53:45;797.15;;;587.22;;
27740;SDS011;15134;48.768;9.184;2023-02-15T05:56:11;793.83;;;586.87;;
27740;SDS011;15134;48.768;9.184;2023-02-15T05:58:38;795.25;;;588.35;;
27740;SDS011;15134;48.768;9.184;2023-02-15T06:01:09;800.63;;;592.25;;
27740;SDS011;15134;48.768;9.184;2023-02-15T06:03:36;796.25;;;587.13;;
27740;SDS011;15134;48.768;9.184;2023-02-15T06:06:05;796.80;;;590.13;;
27740;SDS011;15134;48.768;9.184;2023-02-15T06:08:32;798.75;;;592.28;;
27740;SDS011;15134;48.768;9.184;2023-02-15T06:10:58;795.88;;;585.42;;
27740;SDS011;15134;48.768;9.184;2023-02-15T06:13:25;800.50;;;593.60;;
27740;SDS011;15134;48.768;9.184;2023-02-15T06:15:51;799.42;;;591.88;;
27740;SDS011;15134;48.768;9.184;2023-02-15T06:18:16;796.50;;;590.07;;
27740;SDS011;15134;48.768;9.184;2023-02-15T06:20:42;799.55;;;590.55;;
27740;SDS011;15134;48.768;9.184;2023-02-15T06:23:10;798.35;;;592.17;;
27740;SDS011;15134;48.768;9.184;2023-02-15T06:25:36;796.50;;;591.87;;
27740;SDS011;15134;48.768;9.184;2023-02-15T06:28:02;800.13;;;599.10;;
27740;SDS011;15134;48.768;9.184;2023-02-15T06:30:27;798.00;;;592.27;;
27740;SDS011;15134;48.768;9.184;2023-02-15T06:32:53;799.17;;;593.97;;
27740;SDS011;15134;48.768;9.184;2023-02-15T06:35:19;798.23;;;589.40;;
27740;SDS011;15134;48.768;9.184;2023-02-15T06:37:45;794.88;;;590.25;;
27740;SDS011;15134;48.768;9.184;2023-02-15T06:40:13;797.50;;;586.42;;
27740;SDS011;15134;48.768;9.184;2023-02-15T06:42:39;792.33;;;583.55;;
27740;SDS011;15134;48.768;9.184;2023-02-15T06:45:05;796.28;;;586.97;;
27740;SDS011;15134;48.768;9.184;2023-02-15T06:47:31;796.97;;;589.15;;
27740;SDS011;15134;48.768;9.184;2023-02-15T06:49:56;800.20;;;592.17;;
27740;SDS011;15134;48.768;9.184;2023-02-15T06:52:22;796.30;;;589.00;;
27740;SDS011;15134;48.768;9.184;2023-02-15T06:54:49;797.42;;;590.05;;
27740;SDS011;15134;48.768;9.184;2023-02-15T06:57:14;797.47;;;590.65;;
27740;SDS011;15134;48.768;9.184;2023-02-15T06:59:40;794.47;;;583.10;;
27740;SDS011;15134;48.768;9.184;2023-02-15T07:02:06;795.20;;;586.70;;
27740;SDS011;15134;48.768;9.184;2023-02-15T07:04:34;794.60;;;584.05;;
27740;SDS011;15134;48.768;9.184;2023-02-15T07:06:59;799.63;;;586.15;;
27740;SDS011;15134;48.768;9.184;2023-02-15T07:09:25;803.13;;;590.97;;
27740;SDS011;15134;48.768;9.184;2023-02-15T07:11:51;803.85;;;591.20;;
27740;SDS011;15134;48.768;9.184;2023-02-15T07:14:38;798.83;;;587.83;;
27740;SDS011;15134;48.768;9.184;2023-02-15T07:17:05;794.80;;;579.30;;
27740;SDS011;15134;48.768;9.184;2023-02-15T07:19:31;794.83;;;580.95;;
27740;SDS011;15134;48.768;9.184;2023-02-15T07:21:57;795.35;;;585.72;;
27740;SDS011;15134;48.768;9.184;2023-02-15T07:24:23;797.97;;;587.17;;
27740;SDS011;15134;48.768;9.184;2023-02-15T07:26:49;800.97;;;593.63;;
27740;SDS011;15134;48.768;9.184;2023-02-15T07:29:14;799.40;;;590.93;;
27740;SDS011;15134;48.768;9.184;2023-02-15T07:31:41;797.37;;;588.13;;
27740;SDS011;15134;48.768;9.184;2023-02-15T07:34:10;802.33;;;597.50;;
27740;SDS011;15134;48.768;9.184;2023-02-15T07:36:38;799.10;;;585.60;;
27740;SDS011;15134;48.768;9.184;2023-02-15T07:39:04;799.80;;;591.55;;
27740;SDS011;15134;48.768;9.184;2023-02-15T07:41:29;802.40;;;595.33;;
27740;SDS011;15134;48.768;9.184;2023-02-15T07:43:55;799.47;;;593.72;;
27740;SDS011;15134;48.768;9.184;2023-02-15T07:46:23;804.33;;;600.00;;
27740;SDS011;15134;48.768;9.184;2023-02-15T07:48:49;803.97;;;590.40;;
27740;SDS011;15134;48.768;9.184;2023-02-15T07:51:21;799.53;;;588.13;;
27740;SDS011;15134;48.768;9.184;2023-02-15T07:53:47;804.30;;;600.57;;
27740;SDS011;15134;48.768;9.184;2023-02-15T07:56:13;805.03;;;603.47;;
27740;SDS011;15134;48.768;9.184;2023-02-15T07:58:39;802.90;;;594.70;;
27740;SDS011;15134;48.768;9.184;2023-02-15T08:01:36;802.30;;;593.35;;
27740;SDS011;15134;48.768;9.184;2023-02-15T08:04:07;802.22;;;593.08;;
27740;SDS011;15134;48.768;9.184;2023-02-15T08:06:36;798.97;;;591.83;;
27740;SDS011;15134;48.768;9.184;2023-02-15T08:09:03;806.15;;;599.42;;
27740;SDS011;15134;48.768;9.184;2023-02-15T08:11:32;801.63;;;591.35;;
27740;SDS011;15134;48.768;9.184;2023-02-15T08:14:10;807.28;;;602.65;;
27740;SDS011;15134;48.768;9.184;2023-02-15T08:19:27;805.17;;;595.40;;
27740;SDS011;15134;48.768;9.184;2023-02-15T08:24:26;806.03;;;593.55;;
27740;SDS011;15134;48.768;9.184;2023-02-15T08:27:01;801.13;;;591.78;;
27740;SDS011;15134;48.768;9.184;2023-02-15T08:29:32;798.45;;;587.35;;
27740;SDS011;15134;48.768;9.184;2023-02-15T08:32:00;815.63;;;597.85;;
27740;SDS011;15134;48.768;9.184;2023-02-15T08:34:35;803.70;;;591.53;;
27740;SDS011;15134;48.768;9.184;2023-02-15T08:37:05;802.85;;;593.08;;
27740;SDS011;15134;48.768;9.184;2023-02-15T08:39:32;801.45;;;594.63;;
27740;SDS011;15134;48.768;9.184;2023-02-15T08:42:04;802.72;;;591.67;;
27740;SDS011;15134;48.768;9.184;2023-02-15T08:44:29;803.00;;;593.63;;
27740;SDS011;15134;48.768;9.184;2023-02-15T08:46:55;800.23;;;592.43;;
27740;SDS011;15134;48.768;9.184;2023-02-15T08:49:27;804.28;;;594.75;;
27740;SDS011;15134;48.768;9.184;2023-02-15T08:51:53;806.33;;;599.60;;
27740;SDS011;15134;48.768;9.184;2023-02-15T08:54:20;805.08;;;598.55;;
27740;SDS011;15134;48.768;9.184;2023-02-15T08:56:46;813.20;;;603.83;;
27740;SDS011;15134;48.768;9.184;2023-02-15T08:59:17;819.65;;;602.13;;
27740;SDS011;15134;48.768;9.184;2023-02-15T09:01:47;807.65;;;597.63;;
27740;SDS011;15134;48.768;9.184;2023-02-15T09:04:14;808.15;;;598.70;;
27740;SDS011;15134;48.768;9.184;2023-02-15T09:06:41;809.63;;;602.23;;
27740;SDS011;15134;48.768;9.184;2023-02-15T09:09:11;810.05;;;594.88;;
27740;SDS011;15134;48.768;9.184;2023-02-15T09:11:38;810.25;;;597.45;;
27740;SDS011;15134;48.768;9.184;2023-02-15T09:14:08;815.55;;;607.15;;
27740;SDS011;15134;48.768;9.184;2023-02-15T09:16:39;820.00;;;616.30;;
27740;SDS011;15134;48.768;9.184;2023-02-15T09:19:06;829.97;;;634.20;;
27740;SDS011;15134;48.768;9.184;2023-02-15T09:21:36;835.10;;;647.77;;
27740;SDS011;15134;48.768;9.184;2023-02-15T09:24:04;836.45;;;653.22;;
27740;SDS011;15134;48.768;9.184;2023-02-15T09:26:33;835.72;;;654.17;;
27740;SDS011;15134;48.768;9.184;2023-02-15T09:29:05;832.95;;;645.42;;
27740;SDS011;15134;48.768;9.184;2023-02-15T09:31:33;835.13;;;652.85;;
27740;SDS011;15134;48.768;9.184;2023-02-15T09:34:02;835.20;;;652.72;;
27740;SDS011;15134;48.768;9.184;2023-02-15T09:36:29;834.63;;;658.22;;
27740;SDS011;15134;48.768;9.184;2023-02-15T09:39:01;834.38;;;656.22;;
27740;SDS011;15134;48.768;9.184;2023-02-15T09:47:46;835.60;;;661.92;;
27740;SDS011;15134;48.768;9.184;2023-02-15T09:51:03;843.95;;;665.80;;
27740;SDS011;15134;48.768;9.184;2023-02-15T09:53:59;837.45;;;664.42;;
27740;SDS011;15134;48.768;9.184;2023-02-15T09:56:42;840.10;;;669.55;;
27740;SDS011;15134;48.768;9.184;2023-02-15T10:10:33;839.25;;;665.60;;
27740;SDS011;15134;48.768;9.184;2023-02-15T10:21:23;844.95;;;673.65;;
27740;SDS011;15134;48.768;9.184;2023-02-15T10:24:35;841.93;;;671.57;;
27740;SDS011;15134;48.768;9.184;2023-02-15T10:27:18;844.78;;;679.33;;
27740;SDS011;15134;48.768;9.184;2023-02-15T10:30:10;864.75;;;686.00;;
27740;SDS011;15134;48.768;9.184;2023-02-15T10:41:15;849.47;;;690.90;;
27740;SDS011;15134;48.768;9.184;2023-02-15T10:55:19;854.72;;;699.97;;
27740;SDS011;15134;48.768;9.184;2023-02-15T10:58:17;861.40;;;705.55;;
27740;SDS011;15134;48.768;9.184;2023-02-15T11:01:08;869.35;;;710.03;;
27740;SDS011;15134;48.768;9.184;2023-02-15T11:06:29;854.83;;;701.10;;
27740;SDS011;15134;48.768;9.184;2023-02-15T11:08:59;848.20;;;685.03;;
27740;SDS011;15134;48.768;9.184;2023-02-15T11:11:29;848.92;;;684.60;;
27740;SDS011;15134;48.768;9.184;2023-02-15T11:17:09;850.33;;;693.60;;
27740;SDS011;15134;48.768;9.184;2023-02-15T11:19:49;855.33;;;708.10;;
27740;SDS011;15134;48.768;9.184;2023-02-15T11:22:27;852.15;;;696.35;;
27740;SDS011;15134;48.768;9.184;2023-02-15T11:24:54;856.17;;;703.67;;
27740;SDS011;15134;48.768;9.184;2023-02-15T11:27:30;859.78;;;701.28;;
27740;SDS011;15134;48.768;9.184;2023-02-15T11:30:22;858.38;;;708.58;;
27740;SDS011;15134;48.768;9.184;2023-02-15T11:32:53;851.55;;;696.10;;
27740;SDS011;15134;48.768;9.184;2023-02-15T11:41:53;853.55;;;701.25;;
27740;SDS011;15134;48.768;9.184;2023-02-15T11:47:17;854.50;;;704.53;;
27740;SDS011;15134;48.768;9.184;2023-02-15T11:49:42;853.80;;;710.83;;
27740;SDS011;15134;48.768;9.184;2023-02-15T11:52:11;851.70;;;707.40;;
27740;SDS011;15134;48.768;9.184;2023-02-15T11:54:41;851.22;;;712.97;;
27740;SDS011;15134;48.768;9.184;2023-02-15T11:57:14;851.50;;;707.95;;
27740;SDS011;15134;48.768;9.184;2023-02-15T11:59:56;854.35;;;712.28;;
27740;SDS011;15134;48.768;9.184;2023-02-15T12:02:26;858.42;;;722.05;;
27740;SDS011;15134;48.768;9.184;2023-02-15T12:05:03;853.80;;;709.83;;
27740;SDS011;15134;48.768;9.184;2023-02-15T12:07:36;860.97;;;714.25;;
27740;SDS011;15134;48.768;9.184;2023-02-15T12:12:47;854.78;;;704.53;;
27740;SDS011;15134;48.768;9.184;2023-02-15T12:15:13;851.08;;;698.88;;
27740;SDS011;15134;48.768;9.184;2023-02-15T12:17:52;857.85;;;705.03;;
27740;SDS011;15134;48.768;9.184;2023-02-15T12:22:53;855.92;;;710.00;;
27740;SDS011;15134;48.768;9.184;2023-02-15T12:25:35;856.97;;;716.65;;
27740;SDS011;15134;48.768;9.184;2023-02-15T12:30:54;857.92;;;722.13;;
27740;SDS011;15134;48.768;9.184;2023-02-15T12:36:06;859.72;;;718.97;;
27740;SDS011;15134;48.768;9.184;2023-02-15T12:38:43;854.35;;;711.88;;
27740;SDS011;15134;48.768;9.184;2023-02-15T12:41:26;855.05;;;713.10;;
27740;SDS011;15134;48.768;9.184;2023-02-15T12:44:14;857.17;;;717.23;;
27740;SDS011;15134;48.768;9.184;2023-02-15T12:46:57;876.05;;;728.08;;
27740;SDS011;15134;48.768;9.184;2023-02-15T12:49:44;862.70;;;720.53;;
27740;SDS011;15134;48.768;9.184;2023-02-15T12:52:28;859.28;;;728.78;;
27740;SDS011;15134;48.768;9.184;2023-02-15T12:54:54;859.28;;;719.97;;
27740;SDS011;15134;48.768;9.184;2023-02-15T12:59:56;861.67;;;728.13;;
27740;SDS011;15134;48.768;9.184;2023-02-15T13:07:53;860.33;;;728.42;;
27740;SDS011;15134;48.768;9.184;2023-02-15T13:13:28;861.47;;;723.08;;
27740;SDS011;15134;48.768;9.184;2023-02-15T13:16:01;861.30;;;721.13;;
27740;SDS011;15134;48.768;9.184;2023-02-15T13:18:38;861.92;;;727.15;;
27740;SDS011;15134;48.768;9.184;2023-02-15T13:21:14;857.38;;;718.05;;
27740;SDS011;15134;48.768;9.184;2023-02-15T13:23:46;859.55;;;724.35;;
27740;SDS011;15134;48.768;9.184;2023-02-15T13:26:17;860.35;;;715.83;;
27740;SDS011;15134;48.768;9.184;2023-02-15T13:28:46;859.10;;;712.17;;
27740;SDS011;15134;48.768;9.184;2023-02-15T13:31:20;855.75;;;713.60;;
27740;SDS011;15134;48.768;9.184;2023-02-15T13:33:53;857.85;;;716.10;;
27740;SDS011;15134;48.768;9.184;2023-02-15T13:53:41;859.40;;;720.85;;
27740;SDS011;15134;48.768;9.184;2023-02-15T13:59:26;854.90;;;713.08;;
27740;SDS011;15134;48.768;9.184;2023-02-15T14:10:10;852.85;;;708.30;;
27740;SDS011;15134;48.768;9.184;2023-02-15T14:13:19;856.75;;;710.25;;
27740;SDS011;15134;48.768;9.184;2023-02-15T14:15:54;860.55;;;716.58;;
27740;SDS011;15134;48.768;9.184;2023-02-15T14:18:35;855.53;;;713.00;;
27740;SDS011;15134;48.768;9.184;2023-02-15T14:23:53;857.17;;;717.83;;
27740;SDS011;15134;48.768;9.184;2023-02-15T14:32:12;854.58;;;709.15;;
27740;SDS011;15134;48.768;9.184;2023-02-15T14:35:01;860.22;;;713.53;;
27740;SDS011;15134;48.768;9.184;2023-02-15T14:47:10;862.20;;;720.85;;
27740;SDS011;15134;48.768;9.184;2023-02-15T14:49:23;857.57;;;720.53;;
27740;SDS011;15134;48.768;9.184;2023-02-15T14:51:58;862.72;;;730.03;;
27740;SDS011;15134;48.768;9.184;2023-02-15T15:02:18;855.88;;;722.25;;
27740;SDS011;15134;48.768;9.184;2023-02-15T15:12:55;854.88;;;719.35;;
27740;SDS011;15134;48.768;9.184;2023-02-15T15:18:00;852.92;;;714.40;;
27740;SDS011;15134;48.768;9.184;2023-02-15T15:25:45;858.97;;;725.53;;
27740;SDS011;15134;48.768;9.184;2023-02-15T15:31:18;851.60;;;716.88;;
27740;SDS011;15134;48.768;9.184;2023-02-15T15:45:02;850.55;;;721.55;;
27740;SDS011;15134;48.768;9.184;2023-02-15T15:47:57;854.65;;;728.45;;
27740;SDS011;15134;48.768;9.184;2023-02-15T15:50:44;852.53;;;723.00;;
27740;SDS011;15134;48.768;9.184;2023-02-15T15:53:18;855.80;;;731.35;;
27740;SDS011;15134;48.768;9.184;2023-02-15T15:55:52;856.30;;;731.00;;
27740;SDS011;15134;48.768;9.184;2023-02-15T15:58:22;859.55;;;729.78;;
27740;SDS011;15134;48.768;9.184;2023-02-15T16:00:59;850.77;;;722.57;;
27740;SDS011;15134;48.768;9.184;2023-02-15T16:03:33;859.45;;;734.75;;
27740;SDS011;15134;48.768;9.184;2023-02-15T16:05:59;852.03;;;727.00;;
27740;SDS011;15134;48.768;9.184;2023-02-15T16:08:36;854.00;;;727.38;;
27740;SDS011;15134;48.768;9.184;2023-02-15T16:11:23;853.42;;;726.17;;
27740;SDS011;15134;48.768;9.184;2023-02-15T16:13:53;853.97;;;723.22;;
27740;SDS011;15134;48.768;9.184;2023-02-15T16:16:23;856.08;;;725.67;;
27740;SDS011;15134;48.768;9.184;2023-02-15T16:18:55;852.90;;;722.50;;
27740;SDS011;15134;48.768;9.184;2023-02-15T16:21:29;851.92;;;722.35;;
27740;SDS011;15134;48.768;9.184;2023-02-15T16:24:10;852.92;;;721.90;;
27740;SDS011;15134;48.768;9.184;2023-02-15T16:26:55;854.10;;;723.15;;
27740;SDS011;15134;48.768;9.184;2023-02-15T16:29:29;852.63;;;717.08;;
27740;SDS011;15134;48.768;9.184;2023-02-15T16:31:58;848.85;;;717.08;;
27740;SDS011;15134;48.768;9.184;2023-02-15T16:34:53;851.08;;;714.08;;
27740;SDS011;15134;48.768;9.184;2023-02-15T16:37:26;853.22;;;716.17;;
27740;SDS011;15134;48.768;9.184;2023-02-15T16:39:59;850.85;;;715.97;;
27740;SDS011;15134;48.768;9.184;2023-02-15T16:42:30;848.92;;;707.75;;
27740;SDS011;15134;48.768;9.184;2023-02-15T16:45:06;846.58;;;710.28;;
27740;SDS011;15134;48.768;9.184;2023-02-15T16:47:36;845.20;;;702.53;;
27740;SDS011;15134;48.768;9.184;2023-02-15T16:50:27;848.55;;;702.10;;
27740;SDS011;15134;48.768;9.184;2023-02-15T16:52:57;848.75;;;704.28;;
27740;SDS011;15134;48.768;9.184;2023-02-15T16:55:42;901.30;;;699.85;;
27740;SDS011;15134;48.768;9.184;2023-02-15T16:58:12;870.47;;;702.15;;
27740;SDS011;15134;48.768;9.184;2023-02-15T17:00:41;900.40;;;704.17;;
27740;SDS011;15134;48.768;9.184;2023-02-15T17:13:24;839.47;;;683.90;;
27740;SDS011;15134;48.768;9.184;2023-02-15T17:18:26;844.70;;;691.53;;
27740;SDS011;15134;48.768;9.184;2023-02-15T17:20:58;846.25;;;692.15;;
27740;SDS011;15134;48.768;9.184;2023-02-15T17:24:04;838.92;;;685.67;;
27740;SDS011;15134;48.768;9.184;2023-02-15T17:26:31;839.67;;;684.40;;
27740;SDS011;15134;48.768;9.184;2023-02-15T17:29:45;839.25;;;681.65;;
27740;SDS011;15134;48.768;9.184;2023-02-15T17:31:52;842.13;;;673.73;;
27740;SDS011;15134;48.768;9.184;2023-02-15T17:37:24;842.40;;;685.53;;
27740;SDS011;15134;48.768;9.184;2023-02-15T17:40:14;845.95;;;683.10;;
27740;SDS011;15134;48.768;9.184;2023-02-15T17:42:45;841.28;;;674.88;;
27740;SDS011;15134;48.768;9.184;2023-02-15T17:45:11;837.67;;;676.20;;
27740;SDS011;15134;48.768;9.184;2023-02-15T17:47:37;835.50;;;674.10;;
27740;SDS011;15134;48.768;9.184;2023-02-15T17:50:03;836.40;;;672.25;;
27740;SDS011;15134;48.768;9.184;2023-02-15T17:52:33;839.45;;;673.40;;
27740;SDS011;15134;48.768;9.184;2023-02-15T17:55:07;833.63;;;672.90;;
27740;SDS011;15134;48.768;9.184;2023-02-15T17:57:57;834.55;;;673.88;;
27740;SDS011;15134;48.768;9.184;2023-02-15T18:00:23;837.03;;;675.28;;
27740;SDS011;15134;48.768;9.184;2023-02-15T18:03:10;835.65;;;667.30;;
27740;SDS011;15134;48.768;9.184;2023-02-15T18:05:59;834.63;;;669.67;;
27740;SDS011;15134;48.768;9.184;2023-02-15T18:08:43;828.67;;;664.73;;
27740;SDS011;15134;48.768;9.184;2023-02-15T18:11:29;833.03;;;670.77;;
27740;SDS011;15134;48.768;9.184;2023-02-15T18:14:12;829.85;;;665.08;;
27740;SDS011;15134;48.768;9.184;2023-02-15T18:16:39;834.92;;;670.50;;
27740;SDS011;15134;48.768;9.184;2023-02-15T18:19:16;830.40;;;665.85;;